Time;durP1;ratioP1;P1;durP2;ratioP2;P2;SDS_P1;SDS_P2;PMS_P1;PMS_P2;Temp;Humidity;BMP_temperature;BMP_pressure;BME280_temperature;BME280_humidity;BME280_pressure;Samples;Min_cycle;Max_cycle;Signal;HPM_P1;HPM_P2
2022/08/11 00:00:15;;;;;;;3.88;1.73;;;21.90;54.10;;;;;;5135952;27;20046;-63
2022/08/11 00:02:47;;;;;;;2.47;1.95;;;21.80;53.80;;;;;;5114013;27;20051;-68
2022/08/11 00:05:21;;;;;;;2.58;2.13;;;21.70;54.00;;;;;;5137284;27;20135;-64
2022/08/11 00:07:50;;;;;;;3.95;2.45;;;21.80;54.20;;;;;;5135840;27;20039;-64
2022/08/11 00:10:20;;;;;;;3.03;2.20;;;21.80;54.20;;;;;;5135897;27;20050;-68
2022/08/11 00:12:52;;;;;;;2.92;2.33;;;21.70;54.10;;;;;;5135824;27;20031;-68
2022/08/11 00:15:19;;;;;;;2.38;1.92;;;21.70;54.20;;;;;;5135792;27;20095;-68
2022/08/11 00:17:45;;;;;;;2.50;2.10;;;21.70;54.30;;;;;;5135635;27;20043;-64
2022/08/11 00:20:14;;;;;;;3.67;2.58;;;21.60;54.20;;;;;;5136876;27;20078;-68
2022/08/11 00:22:42;;;;;;;4.25;2.50;;;21.60;54.20;;;;;;5135860;27;20043;-64
2022/08/11 00:25:14;;;;;;;3.45;2.20;;;21.60;54.20;;;;;;5135932;27;20377;-64
2022/08/11 00:27:40;;;;;;;4.38;2.40;;;21.60;54.30;;;;;;5135396;27;20113;-64
2022/08/11 00:30:08;;;;;;;3.38;2.42;;;21.60;54.30;;;;;;5136996;27;20442;-64
2022/08/11 00:32:37;;;;;;;3.42;2.30;;;21.50;54.20;;;;;;5135703;27;20058;-67
2022/08/11 00:35:05;;;;;;;2.80;2.40;;;21.50;54.20;;;;;;5136697;27;20053;-64
2022/08/11 00:37:31;;;;;;;3.47;2.58;;;21.50;54.30;;;;;;5135508;27;20039;-63
2022/08/11 00:39:58;;;;;;;3.15;2.55;;;21.50;54.40;;;;;;5136535;27;20047;-67
2022/08/11 00:43:20;;;;;;;3.95;2.63;;;21.40;54.40;;;;;;5135883;27;20039;-64
2022/08/11 00:46:08;;;;;;;4.00;2.75;;;21.40;54.20;;;;;;5063003;27;20046;-67
2022/08/11 00:48:55;;;;;;;2.20;2.00;;;21.40;54.30;;;;;;5135083;27;20046;-67
2022/08/11 00:51:39;;;;;;;3.08;2.25;;;21.40;54.50;;;;;;5135096;27;20043;-69
2022/08/11 00:54:31;;;;;;;4.05;2.72;;;21.30;54.40;;;;;;5135069;27;20050;-63
2022/08/11 00:57:23;;;;;;;3.03;2.42;;;21.30;54.50;;;;;;5134631;27;20047;-64
2022/08/11 01:00:09;;;;;;;4.18;2.38;;;21.30;54.60;;;;;;5079579;27;20051;-68
2022/08/11 01:02:50;;;;;;;2.65;2.25;;;21.20;54.60;;;;;;5136044;27;20486;-64
2022/08/11 01:05:46;;;;;;;3.70;2.70;;;21.20;54.60;;;;;;5135060;27;20065;-63
2022/08/11 01:08:30;;;;;;;2.58;2.30;;;21.20;54.70;;;;;;5134639;27;20123;-67
2022/08/11 01:10:56;;;;;;;;;;;21.10;54.70;;;;;;5135142;27;20077;-64
2022/08/11 01:13:34;;;;;;;4.32;2.70;;;21.10;54.40;;;;;;5117401;27;19954;-67
2022/08/11 01:16:44;;;;;;;3.35;2.45;;;21.00;54.80;;;;;;5134546;27;20525;-64
2022/08/11 01:19:45;;;;;;;3.70;2.50;;;21.00;54.60;;;;;;5015698;28;20038;-63
2022/08/11 01:22:48;;;;;;;2.83;2.22;;;21.00;54.70;;;;;;5015640;28;20041;-63
2022/08/11 01:25:53;;;;;;;3.03;2.20;;;20.90;54.70;;;;;;5117485;27;20455;-68
2022/08/11 01:28:27;;;;;;;;;;;20.90;54.80;;;;;;5134816;27;20050;-63
2022/08/11 01:31:12;;;;;;;;;;;20.80;54.40;;;;;;5117565;27;19985;-68
2022/08/11 01:34:11;;;;;;;3.33;2.33;;;20.80;54.50;;;;;;5117166;27;20405;-68
2022/08/11 01:36:52;;;;;;;4.13;2.53;;;20.80;54.70;;;;;;5134207;27;20051;-62
2022/08/11 01:39:36;;;;;;;2.78;2.45;;;20.70;55.00;;;;;;5134123;27;20411;-68
2022/08/11 01:45:30;;;;;;;3.33;2.30;;;20.70;55.10;;;;;;5134192;27;20455;-68
2022/08/11 01:48:08;;;;;;;2.80;2.20;;;20.60;55.20;;;;;;5134039;27;20039;-67
2022/08/11 01:50:52;;;;;;;3.42;2.47;;;20.60;55.20;;;;;;5134190;27;20046;-63
2022/08/11 01:53:41;;;;;;;3.35;2.40;;;20.60;55.10;;;;;;5134118;27;20043;-63
2022/08/11 01:56:09;;;;;;;4.43;2.25;;;20.60;55.20;;;;;;5088927;27;20047;-63
2022/08/11 01:58:48;;;;;;;3.90;2.60;;;20.50;55.30;;;;;;5133406;27;20047;-62
2022/08/11 02:01:32;;;;;;;3.22;2.05;;;20.50;55.40;;;;;;5135441;27;20062;-63
2022/08/11 02:04:18;;;;;;;3.05;2.63;;;20.50;55.40;;;;;;5133700;27;20047;-62
2022/08/11 02:07:01;;;;;;;2.80;2.20;;;20.50;55.90;;;;;;5135010;27;20035;-62
2022/08/11 02:09:54;;;;;;;3.13;2.80;;;20.40;55.70;;;;;;5134787;27;20042;-63
2022/08/11 02:12:37;;;;;;;2.97;2.40;;;20.40;55.70;;;;;;5133635;27;20038;-63
2022/08/11 02:15:38;;;;;;;4.47;3.30;;;20.40;55.70;;;;;;5133515;27;20482;-63
2022/08/11 02:23:38;;;;;;;4.35;2.88;;;20.30;55.80;;;;;;5134514;27;20085;-63
2022/08/11 02:24:22;;;;;;;2.95;2.40;;;20.30;55.90;;;;;;5133221;27;20054;-68
2022/08/11 02:27:06;;;;;;;3.05;2.20;;;20.20;55.80;;;;;;5133577;27;20479;-68
2022/08/11 02:29:43;;;;;;;3.63;2.83;;;20.20;55.80;;;;;;5133182;27;20076;-68
2022/08/11 02:35:05;;;;;;;3.03;2.35;;;20.20;55.90;;;;;;5133188;27;20080;-64
2022/08/11 02:37:33;;;;;;;3.50;2.20;;;20.10;55.80;;;;;;5133056;27;20126;-63
2022/08/11 02:40:05;;;;;;;3.72;2.30;;;20.10;55.80;;;;;;5133391;27;20084;-67
2022/08/11 02:42:41;;;;;;;2.78;2.03;;;20.10;55.80;;;;;;5134435;27;20500;-67
2022/08/11 02:45:38;;;;;;;2.72;2.10;;;20.10;55.80;;;;;;5132946;27;20046;-68
2022/08/11 02:51:47;;;;;;;4.85;2.85;;;20.00;55.70;;;;;;5132814;27;20112;-64
2022/08/11 02:54:25;;;;;;;3.33;2.53;;;20.00;55.90;;;;;;5132774;27;20046;-63
2022/08/11 02:57:10;;;;;;;3.25;1.98;;;20.00;55.90;;;;;;5133796;27;20038;-64
2022/08/11 02:59:51;;;;;;;2.20;1.95;;;19.90;55.80;;;;;;5133889;27;20058;-64
2022/08/11 03:02:46;;;;;;;3.17;2.50;;;19.90;55.80;;;;;;5133967;27;20474;-68
2022/08/11 03:05:34;;;;;;;2.17;1.98;;;19.90;55.90;;;;;;5132582;27;20050;-68
2022/08/11 03:08:19;;;;;;;3.47;2.67;;;19.90;56.10;;;;;;5132532;27;20043;-63
2022/08/11 03:16:43;;;;;;;2.47;2.13;;;19.80;56.00;;;;;;5132651;27;20047;-68
2022/08/11 03:17:19;;;;;;;4.97;2.83;;;19.80;56.00;;;;;;5087707;28;20130;-68
2022/08/11 03:19:55;;;;;;;3.58;2.40;;;19.80;56.20;;;;;;5081428;28;20521;-68
2022/08/11 03:22:37;;;;;;;3.53;2.78;;;19.70;56.30;;;;;;5132594;28;20047;-64
2022/08/11 03:25:30;;;;;;;2.70;2.22;;;19.70;56.40;;;;;;5115295;28;20075;-64
2022/08/11 03:28:20;;;;;;;3.80;2.75;;;19.70;56.30;;;;;;5132243;28;20118;-64
2022/08/11 03:31:14;;;;;;;3.10;2.38;;;19.70;56.40;;;;;;5098343;28;20573;-68
2022/08/11 03:34:01;;;;;;;3.75;3.03;;;19.60;56.40;;;;;;5132686;28;20046;-64
2022/08/11 03:36:58;;;;;;;5.65;3.63;;;19.60;56.60;;;;;;5133839;28;20508;-69
2022/08/11 03:39:56;;;;;;;3.55;2.72;;;19.60;56.70;;;;;;5132305;28;20453;-69
2022/08/11 03:42:40;;;;;;;4.45;2.72;;;19.60;56.70;;;;;;5133731;28;20100;-69
2022/08/11 03:45:34;;;;;;;4.13;3.15;;;19.50;56.80;;;;;;5133513;28;20074;-68
2022/08/11 03:48:22;;;;;;;4.65;3.00;;;19.50;56.80;;;;;;5133805;28;20099;-68
2022/08/11 03:51:07;;;;;;;3.60;2.63;;;19.50;56.80;;;;;;5132306;28;20047;-64
2022/08/11 03:53:54;;;;;;;3.17;2.88;;;19.40;56.70;;;;;;5133519;28;20050;-64
2022/08/11 03:56:32;;;;;;;3.25;2.60;;;19.40;56.60;;;;;;5132115;28;20039;-63
2022/08/11 03:59:19;;;;;;;3.65;3.05;;;19.40;56.70;;;;;;5131894;27;20066;-64
2022/08/11 04:02:13;;;;;;;3.92;2.70;;;19.40;56.80;;;;;;5132053;28;20043;-63
2022/08/11 04:05:00;;;;;;;4.63;3.58;;;19.40;56.80;;;;;;5132370;28;20035;-63
2022/08/11 04:08:04;;;;;;;3.58;2.83;;;19.30;56.80;;;;;;5132055;28;20035;-63
2022/08/11 04:11:05;;;;;;;3.83;2.87;;;19.30;57.00;;;;;;5059694;28;20047;-67
2022/08/11 04:15:58;;;;;;;3.55;2.85;;;19.30;57.00;;;;;;5132015;28;20045;-68
2022/08/11 04:16:52;;;;;;;4.22;3.50;;;19.30;57.10;;;;;;5114920;27;20478;-67
2022/08/11 04:19:35;;;;;;;4.13;3.60;;;19.20;57.30;;;;;;5101513;27;20057;-69
2022/08/11 04:22:19;;;;;;;4.28;3.05;;;19.20;57.40;;;;;;5135919;27;20038;-67
2022/08/11 04:25:08;;;;;;;3.95;3.25;;;19.20;57.50;;;;;;5135591;27;20043;-68
2022/08/11 04:28:19;;;;;;;6.55;3.97;;;19.20;57.40;;;;;;5135427;27;20035;-63
2022/08/11 04:31:06;;;;;;;4.50;4.07;;;19.20;57.70;;;;;;5079853;27;20056;-63
2022/08/11 04:33:33;;;;;;;3.15;2.85;;;19.20;58.00;;;;;;5135381;27;20085;-63
2022/08/11 04:37:31;;;;;;;5.22;4.50;;;19.10;57.90;;;;;;5135397;27;20046;-63
2022/08/11 04:39:56;;;;;;;4.90;3.10;;;19.10;58.00;;;;;;5118024;27;20055;-67
2022/08/11 04:43:22;;;;;;;4.13;3.72;;;19.10;58.50;;;;;;5101138;27;20074;-67
2022/08/11 04:46:05;;;;;;;6.10;4.80;;;19.00;58.40;;;;;;5136446;27;20122;-68
2022/08/11 05:07:24;;;;;;;6.53;5.25;;;18.90;60.20;;;;;;5134818;27;20176;-68
2022/08/11 05:10:13;;;;;;;9.88;6.72;;;18.80;60.50;;;;;;5134782;27;20039;-68
2022/08/11 05:12:42;;;;;;;7.75;6.47;;;18.80;61.00;;;;;;5135923;27;20489;-63
2022/08/11 05:35:37;;;;;;;7.68;6.22;;;19.00;62.30;;;;;;5134299;27;20050;-63
2022/08/11 05:57:34;;;;;;;9.27;7.20;;;19.10;64.10;;;;;;5133831;27;20159;-63
2022/08/11 06:00:09;;;;;;;9.10;7.47;;;19.20;64.80;;;;;;5135034;27;20043;-67
2022/08/11 06:02:41;;;;;;;10.20;7.80;;;19.40;65.10;;;;;;5133782;27;20043;-68
2022/08/11 06:05:07;;;;;;;7.25;6.50;;;19.80;65.00;;;;;;5116598;27;20442;-63
2022/08/11 06:07:33;;;;;;;9.00;6.47;;;20.20;64.20;;;;;;5133873;27;20042;-68
2022/08/11 06:09:59;;;;;;;7.28;6.57;;;20.70;63.50;;;;;;5133547;27;20042;-68
2022/08/11 06:12:36;;;;;;;8.40;6.30;;;21.30;62.50;;;;;;5134909;27;20076;-64
2022/08/11 06:15:07;;;;;;;8.35;5.95;;;21.90;61.20;;;;;;5133481;27;20051;-67
2022/08/11 06:17:44;;;;;;;6.68;5.88;;;22.50;59.70;;;;;;5133269;27;20046;-68
2022/08/11 06:20:11;;;;;;;8.00;5.95;;;23.00;58.90;;;;;;5134561;27;20092;-63
2022/08/11 06:22:38;;;;;;;8.55;5.78;;;23.50;57.80;;;;;;5134615;27;20035;-63
2022/08/11 06:25:07;;;;;;;7.35;6.05;;;24.00;56.80;;;;;;5133247;27;20482;-63
2022/08/11 06:27:36;;;;;;;6.88;5.70;;;24.40;55.90;;;;;;5133099;27;20337;-63
2022/08/11 06:30:12;;;;;;;6.60;6.00;;;24.90;54.90;;;;;;5116098;27;20043;-63
2022/08/11 06:32:44;;;;;;;7.22;5.18;;;25.30;54.30;;;;;;5133388;27;20050;-63
2022/08/11 06:35:45;;;;;;;6.78;5.30;;;25.70;53.40;;;;;;5133103;27;20099;-63
2022/08/11 06:38:29;;;;;;;7.00;5.53;;;26.20;52.60;;;;;;5077289;27;20047;-63
2022/08/11 06:44:04;;;;;;;6.05;4.50;;;26.90;50.90;;;;;;5132953;27;20045;-63
2022/08/11 06:46:37;;;;;;;5.43;4.50;;;27.20;49.90;;;;;;5099076;27;20092;-64
2022/08/11 06:52:00;;;;;;;7.32;4.45;;;27.70;48.00;;;;;;5133065;27;20059;-64
2022/08/11 06:54:31;;;;;;;6.60;4.95;;;27.90;48.20;;;;;;5132772;27;20043;-64
2022/08/11 07:02:52;;;;;;;6.03;4.10;;;28.40;46.80;;;;;;5132829;27;20039;-63
2022/08/11 07:05:45;;;;;;;5.45;4.63;;;28.70;46.30;;;;;;5132677;27;20051;-63
2022/08/11 07:17:20;;;;;;;5.28;4.78;;;29.20;43.70;;;;;;5132685;28;20398;-64
2022/08/11 07:31:43;;;;;;;3.53;2.85;;;28.60;43.60;;;;;;5132332;28;20436;-68
2022/08/11 07:34:29;;;;;;;3.72;2.83;;;28.60;44.20;;;;;;5132410;28;20121;-68
2022/08/11 07:36:57;;;;;;;3.70;3.00;;;28.70;43.80;;;;;;5132319;28;20481;-68
2022/08/11 07:39:32;;;;;;;4.95;3.17;;;28.80;43.60;;;;;;5132323;28;20054;-67
2022/08/11 07:42:03;;;;;;;3.28;2.72;;;28.90;43.80;;;;;;5115481;28;20118;-69
2022/08/11 07:44:29;;;;;;;4.35;2.90;;;29.10;43.60;;;;;;5132295;28;20039;-69
2022/08/11 07:52:33;;;;;;;3.03;2.40;;;29.60;43.30;;;;;;5135333;27;20542;-63
2022/08/11 07:55:14;;;;;;;3.05;2.00;;;29.70;43.20;;;;;;5136170;27;20043;-64
2022/08/11 08:19:47;;;;;;;4.95;1.67;;;30.70;41.50;;;;;;5135589;27;20497;-68
2022/08/11 08:22:17;;;;;;;3.88;1.85;;;30.80;41.50;;;;;;5135660;27;20168;-64
2022/08/11 08:24:43;;;;;;;2.60;1.80;;;30.90;41.10;;;;;;5136874;27;20398;-64
2022/08/11 08:27:11;;;;;;;7.35;2.05;;;31.10;41.10;;;;;;5136754;27;20117;-64
2022/08/11 08:32:22;;;;;;;5.15;1.77;;;31.30;40.60;;;;;;5136818;27;20425;-64
2022/08/11 08:34:54;;;;;;;4.70;1.70;;;31.40;40.40;;;;;;5101247;27;20050;-64
2022/08/11 08:37:22;;;;;;;2.25;1.30;;;31.50;39.40;;;;;;5101510;27;20555;-64
2022/08/11 08:39:49;;;;;;;3.95;1.50;;;31.40;39.00;;;;;;5136706;27;20035;-67
2022/08/11 08:42:24;;;;;;;3.80;1.83;;;31.40;39.40;;;;;;5135320;27;20127;-69
2022/08/11 08:45:11;;;;;;;2.65;1.73;;;31.40;39.00;;;;;;5136332;27;20039;-69
2022/08/11 08:47:41;;;;;;;3.10;1.92;;;31.40;39.00;;;;;;5135037;27;20045;-68
2022/08/11 08:50:13;;;;;;;4.22;1.33;;;31.40;39.30;;;;;;5135372;27;20130;-68
2022/08/11 08:52:46;;;;;;;6.80;1.92;;;31.60;39.60;;;;;;5135187;27;20045;-68
2022/08/11 08:55:18;;;;;;;2.10;1.13;;;31.80;38.50;;;;;;5118251;27;20476;-68
2022/08/11 08:57:47;;;;;;;2.85;1.08;;;31.90;38.10;;;;;;5097044;28;20050;-70
2022/08/11 09:00:17;;;;;;;3.30;1.15;;;31.90;38.80;;;;;;5115599;28;20086;-68
2022/08/11 09:02:44;;;;;;;2.78;1.30;;;32.10;38.80;;;;;;5114909;27;20043;-68
2022/08/11 09:05:10;;;;;;;3.28;1.48;;;32.10;38.20;;;;;;5131439;27;20040;-64
2022/08/11 09:07:37;;;;;;;3.90;1.30;;;32.20;38.00;;;;;;5131387;27;20067;-64
2022/08/11 09:10:04;;;;;;;4.20;1.35;;;32.20;37.90;;;;;;5115523;28;20418;-64
2022/08/11 09:12:33;;;;;;;1.85;0.93;;;32.30;38.10;;;;;;5131167;27;20536;-65
2022/08/11 09:14:59;;;;;;;1.77;1.13;;;32.30;37.40;;;;;;5115567;28;20039;-64
2022/08/11 09:17:27;;;;;;;2.53;0.90;;;32.30;36.20;;;;;;5113919;28;20382;-64
2022/08/11 09:19:59;;;;;;;3.80;1.13;;;32.30;36.10;;;;;;5131081;27;20058;-64
2022/08/11 09:28:16;;;;;;;2.72;1.40;;;32.30;37.00;;;;;;5131007;27;20055;-64
2022/08/11 09:30:45;;;;;;;2.30;1.23;;;32.40;36.80;;;;;;5115200;28;20044;-64
2022/08/11 09:33:15;;;;;;;4.45;1.50;;;32.50;36.30;;;;;;5130958;27;20040;-68
2022/08/11 09:35:45;;;;;;;2.38;1.10;;;32.70;36.30;;;;;;5115066;28;20035;-68
2022/08/11 09:41:01;;;;;;;3.58;1.63;;;32.80;35.80;;;;;;5130745;27;20043;-64
2022/08/11 09:46:13;;;;;;;6.05;1.95;;;32.60;33.40;;;;;;5130676;27;20090;-68
2022/08/11 09:48:44;;;;;;;2.22;1.55;;;32.50;33.90;;;;;;5130977;27;20360;-68
2022/08/11 09:51:12;;;;;;;4.32;1.90;;;32.60;34.40;;;;;;5130619;27;20059;-68
2022/08/11 09:53:40;;;;;;;6.38;1.80;;;32.60;34.60;;;;;;5130788;27;20047;-69
2022/08/11 09:58:56;;;;;;;5.03;2.35;;;32.70;34.10;;;;;;5130127;27;20411;-64
2022/08/11 10:01:30;;;;;;;2.95;1.55;;;32.70;33.90;;;;;;5114378;28;20051;-64
2022/08/11 10:04:14;;;;;;;2.72;1.50;;;32.80;34.00;;;;;;5130252;27;20043;-64
2022/08/11 10:09:49;;;;;;;2.15;1.35;;;32.80;34.20;;;;;;5130097;27;20058;-64
2022/08/11 10:12:23;;;;;;;1.92;1.40;;;32.90;34.00;;;;;;5085205;28;20047;-64
2022/08/11 10:18:41;;;;;;;2.00;1.35;;;32.90;34.10;;;;;;5114351;28;20496;-64
2022/08/11 10:20:35;;;;;;;5.75;1.10;;;32.90;33.80;;;;;;5112962;28;20484;-64
2022/08/11 10:28:35;;;;;;;2.05;1.45;;;32.80;33.50;;;;;;5129793;27;20131;-68
2022/08/11 10:34:00;;;;;;;3.08;1.50;;;32.90;33.30;;;;;;5129697;27;20047;-69
2022/08/11 10:36:45;;;;;;;2.95;1.60;;;32.90;32.50;;;;;;5129749;27;20051;-69
2022/08/11 10:39:19;;;;;;;2.15;1.33;;;32.90;33.40;;;;;;5129603;27;20040;-69
2022/08/11 10:44:38;;;;;;;2.95;1.45;;;32.70;32.00;;;;;;5129503;27;20097;-69
2022/08/11 11:01:08;;;;;;;2.58;1.40;;;32.60;32.50;;;;;;5094089;28;20445;-69
2022/08/11 11:03:35;;;;;;;3.60;1.50;;;32.50;32.70;;;;;;5106785;27;20047;-69
2022/08/11 11:06:12;;;;;;;1.95;1.13;;;32.50;32.60;;;;;;5132611;27;20478;-68
2022/08/11 11:08:52;;;;;;;2.25;1.33;;;32.50;32.00;;;;;;5132639;27;20050;-69
2022/08/11 11:11:20;;;;;;;3.97;1.73;;;32.40;31.80;;;;;;5132783;27;20039;-69
2022/08/11 11:19:18;;;;;;;5.15;1.40;;;32.30;31.80;;;;;;5133703;28;20543;-64
2022/08/11 11:21:46;;;;;;;2.55;1.58;;;32.30;33.00;;;;;;5132680;28;20047;-64
2022/08/11 11:24:36;;;;;;;4.93;1.48;;;32.30;33.40;;;;;;5132671;28;20039;-64
2022/08/11 11:27:13;;;;;;;4.35;1.77;;;32.40;31.90;;;;;;5135044;27;20043;-64
2022/08/11 11:29:54;;;;;;;3.63;1.20;;;32.30;31.80;;;;;;5136728;27;20119;-64
2022/08/11 11:32:53;;;;;;;4.97;1.17;;;32.30;31.70;;;;;;5102468;27;20050;-64
2022/08/11 11:36:04;;;;;;;4.18;1.48;;;32.20;31.50;;;;;;5131307;27;20054;-64
2022/08/11 11:38:29;;;;;;;3.38;1.15;;;32.20;32.10;;;;;;5136515;27;20054;-64
2022/08/11 11:43:41;;;;;;;4.60;1.52;;;32.10;32.60;;;;;;5137686;27;20046;-63
2022/08/11 11:46:09;;;;;;;1.80;1.20;;;32.20;32.40;;;;;;5136636;27;20393;-64
2022/08/11 11:48:36;;;;;;;2.05;1.10;;;32.10;32.20;;;;;;5136345;27;20053;-64
2022/08/11 11:51:02;;;;;;;4.28;1.20;;;32.10;32.40;;;;;;5119415;27;20035;-64
2022/08/11 11:53:28;;;;;;;2.60;1.45;;;32.10;31.80;;;;;;5137313;27;20035;-70
2022/08/11 11:55:55;;;;;;;3.45;1.40;;;32.10;31.70;;;;;;5137596;27;20121;-71
2022/08/11 12:01:15;;;;;;;3.10;1.42;;;32.10;32.20;;;;;;5137363;27;20039;-72
2022/08/11 12:03:44;;;;;;;1.92;1.45;;;32.10;32.90;;;;;;5118858;27;20390;-68
2022/08/11 12:06:12;;;;;;;2.63;1.33;;;32.10;31.70;;;;;;5136033;27;20075;-67
2022/08/11 12:08:40;;;;;;;3.40;1.30;;;32.00;32.80;;;;;;5135932;27;20099;-68
2022/08/11 12:13:57;;;;;;;3.25;1.20;;;32.00;33.20;;;;;;5137562;27;20089;-68
2022/08/11 12:16:23;;;;;;;3.75;1.15;;;32.10;33.20;;;;;;5135855;27;20490;-67
2022/08/11 12:18:57;;;;;;;3.35;1.30;;;32.20;32.80;;;;;;5135714;27;20047;-67
2022/08/11 12:21:23;;;;;;;3.28;1.30;;;32.20;32.40;;;;;;5135667;27;20039;-67
2022/08/11 12:29:26;;;;;;;6.18;1.48;;;32.00;32.00;;;;;;5135528;27;20066;-68
2022/08/11 12:31:57;;;;;;;2.15;1.27;;;32.00;32.30;;;;;;5137220;27;20039;-67
2022/08/11 12:34:26;;;;;;;1.83;0.98;;;32.00;32.50;;;;;;5135411;27;20039;-70
2022/08/11 12:36:59;;;;;;;2.03;1.10;;;32.00;32.10;;;;;;5135530;27;20051;-70
2022/08/11 12:53:27;;;;;;;3.88;1.20;;;31.90;32.40;;;;;;5135017;27;20050;-68
2022/08/11 12:58:50;;;;;;;1.10;1.00;;;32.00;32.70;;;;;;5134922;27;20108;-67
2022/08/11 13:06:45;;;;;;;3.22;1.30;;;32.30;32.40;;;;;;5135146;27;20122;-67
2022/08/11 13:09:12;;;;;;;2.40;1.15;;;32.30;32.60;;;;;;5134725;27;20546;-67
2022/08/11 13:14:31;;;;;;;2.35;1.10;;;32.50;31.90;;;;;;5134662;27;20055;-67
2022/08/11 13:19:45;;;;;;;2.53;1.35;;;32.30;32.10;;;;;;5135884;27;20054;-61
2022/08/11 13:22:12;;;;;;;3.65;1.38;;;32.30;32.20;;;;;;5135729;27;20043;-62
2022/08/11 13:24:39;;;;;;;2.25;1.20;;;32.40;32.20;;;;;;5134407;27;20039;-62
2022/08/11 13:27:05;;;;;;;1.73;1.05;;;32.40;32.10;;;;;;5134412;27;20071;-62
2022/08/11 13:29:31;;;;;;;3.58;1.17;;;32.50;32.20;;;;;;5117507;27;20090;-62
2022/08/11 13:31:58;;;;;;;2.33;1.17;;;32.50;32.20;;;;;;5135780;27;20435;-64
2022/08/11 13:34:26;;;;;;;2.78;1.13;;;32.50;32.40;;;;;;5134329;27;20075;-63
2022/08/11 13:36:55;;;;;;;3.20;1.08;;;32.50;32.40;;;;;;5135557;27;20035;-63
2022/08/11 13:39:30;;;;;;;1.10;0.70;;;32.50;32.20;;;;;;5134062;27;20099;-64
2022/08/11 13:41:58;;;;;;;2.42;0.95;;;32.70;33.00;;;;;;5134239;27;20067;-63
2022/08/11 13:44:32;;;;;;;1.92;1.08;;;32.70;32.80;;;;;;5135556;27;20110;-63
2022/08/11 13:47:03;;;;;;;3.05;1.40;;;32.70;32.70;;;;;;5135344;27;20111;-63
2022/08/11 13:49:36;;;;;;;1.95;1.00;;;32.70;32.20;;;;;;5133746;27;20043;-68
2022/08/11 13:52:03;;;;;;;1.75;1.00;;;32.70;31.90;;;;;;5135233;27;20196;-68
2022/08/11 13:54:37;;;;;;;3.67;1.10;;;32.70;32.10;;;;;;5099826;27;20179;-68
2022/08/11 13:57:06;;;;;;;1.95;1.10;;;32.70;32.30;;;;;;5133614;27;20535;-68
2022/08/11 13:59:32;;;;;;;3.45;1.08;;;32.70;32.70;;;;;;5135112;27;20043;-67
2022/08/11 14:02:11;;;;;;;3.88;1.10;;;32.70;32.30;;;;;;5116673;27;20050;-69
2022/08/11 14:04:41;;;;;;;2.80;1.00;;;32.80;32.00;;;;;;5135061;27;20141;-68
2022/08/11 14:07:10;;;;;;;1.98;1.10;;;32.80;32.00;;;;;;5134009;27;20046;-69
2022/08/11 14:09:43;;;;;;;1.10;0.80;;;32.80;32.10;;;;;;5133601;27;20039;-69
2022/08/11 14:15:09;;;;;;;4.38;1.08;;;32.80;31.50;;;;;;5116516;27;19923;-69
2022/08/11 14:17:37;;;;;;;1.80;1.00;;;32.70;31.80;;;;;;5116338;27;20074;-69
2022/08/11 14:20:08;;;;;;;2.75;1.20;;;32.70;32.00;;;;;;5133303;27;20432;-68
2022/08/11 14:22:37;;;;;;;3.22;1.08;;;32.70;31.40;;;;;;5133354;27;20490;-68
2022/08/11 14:25:04;;;;;;;2.35;0.98;;;32.70;31.30;;;;;;5134623;27;20397;-69
2022/08/11 14:27:30;;;;;;;2.08;0.90;;;32.60;31.70;;;;;;5134862;27;20436;-69
2022/08/11 14:29:57;;;;;;;2.65;1.05;;;32.60;31.70;;;;;;5116108;27;20490;-69
2022/08/11 14:32:24;;;;;;;3.92;1.15;;;32.60;31.90;;;;;;5116072;27;20047;-69
2022/08/11 14:34:50;;;;;;;1.77;1.00;;;32.60;31.30;;;;;;5134578;27;20436;-68
2022/08/11 14:37:21;;;;;;;3.17;1.00;;;32.60;31.50;;;;;;5098996;27;20051;-68
2022/08/11 14:39:51;;;;;;;1.55;1.00;;;32.60;32.30;;;;;;5132983;27;20035;-68
2022/08/11 14:48:01;;;;;;;1.63;1.13;;;32.60;32.10;;;;;;5132781;27;20050;-69
2022/08/11 14:50:36;;;;;;;2.92;1.15;;;32.60;31.80;;;;;;5134341;27;20126;-69
2022/08/11 14:53:09;;;;;;;2.35;1.05;;;32.70;32.20;;;;;;5098889;27;20096;-69
2022/08/11 14:58:25;;;;;;;2.30;1.00;;;32.70;31.70;;;;;;5132347;27;20103;-69
2022/08/11 15:00:57;;;;;;;2.67;1.17;;;32.70;32.20;;;;;;5133684;27;20095;-69
2022/08/11 15:03:25;;;;;;;3.97;1.20;;;32.60;31.90;;;;;;5134172;27;20389;-68
2022/08/11 15:05:55;;;;;;;2.35;1.23;;;32.60;31.50;;;;;;5132741;27;20043;-69
2022/08/11 15:08:53;;;;;;;1.95;1.00;;;32.50;31.30;;;;;;5134037;27;20558;-67
2022/08/11 15:12:07;;;;;;;2.72;1.20;;;32.40;31.50;;;;;;5115348;27;20046;-67
2022/08/11 15:13:59;;;;;;;2.80;1.13;;;32.40;31.70;;;;;;5115324;27;20043;-67
2022/08/11 15:19:12;;;;;;;2.45;1.33;;;32.30;31.80;;;;;;5132698;28;20039;-64
2022/08/11 15:24:23;;;;;;;3.47;1.10;;;32.30;32.10;;;;;;5132628;28;20073;-64
2022/08/11 15:37:59;;;;;;;1.58;1.15;;;32.10;31.60;;;;;;5132512;28;20047;-63
2022/08/11 15:46:29;;;;;;;2.88;1.27;;;32.00;32.20;;;;;;5132197;28;20126;-63
2022/08/11 15:49:00;;;;;;;3.17;1.30;;;32.00;32.00;;;;;;5133689;28;20050;-64
2022/08/11 15:51:28;;;;;;;2.95;1.00;;;32.00;32.30;;;;;;5133518;28;20113;-64
2022/08/11 15:53:58;;;;;;;3.22;1.00;;;32.00;32.60;;;;;;5132496;28;20542;-63
2022/08/11 15:56:29;;;;;;;2.60;0.82;;;32.00;32.40;;;;;;5132089;28;20126;-63
2022/08/11 16:04:31;;;;;;;2.58;0.90;;;32.00;32.50;;;;;;5133317;28;20401;-63
2022/08/11 16:07:26;;;;;;;2.47;1.00;;;32.00;32.20;;;;;;5132119;28;20039;-64
2022/08/11 16:10:14;;;;;;;3.78;1.30;;;32.00;32.20;;;;;;5132064;28;20047;-63
2022/08/11 16:16:13;;;;;;;1.63;1.10;;;31.80;32.70;;;;;;5134118;27;20166;-64
2022/08/11 16:18:39;;;;;;;2.42;1.00;;;31.80;33.00;;;;;;5136095;27;20061;-64
2022/08/11 16:21:09;;;;;;;1.75;1.08;;;31.90;32.90;;;;;;5135765;27;20046;-64
2022/08/11 16:23:38;;;;;;;2.00;0.85;;;31.90;32.60;;;;;;5101737;27;20505;-64
2022/08/11 16:26:05;;;;;;;2.28;1.10;;;31.90;32.40;;;;;;5136786;27;20459;-64
2022/08/11 16:28:32;;;;;;;1.80;1.02;;;31.90;32.60;;;;;;5135668;27;20071;-64
2022/08/11 16:30:59;;;;;;;3.95;1.45;;;31.90;32.80;;;;;;5135628;27;20057;-69
2022/08/11 16:33:26;;;;;;;2.08;0.90;;;31.90;33.00;;;;;;5135530;27;20078;-70
2022/08/11 16:38:39;;;;;;;1.50;1.02;;;31.70;33.30;;;;;;5103998;27;20055;-68
2022/08/11 16:41:12;;;;;;;2.67;1.00;;;31.80;33.30;;;;;;5135326;27;20478;-68
2022/08/11 16:49:30;;;;;;;2.63;1.00;;;31.60;33.10;;;;;;5135161;27;20107;-68
2022/08/11 16:51:56;;;;;;;4.15;1.70;;;31.60;33.30;;;;;;5135124;27;20070;-67
2022/08/11 16:54:22;;;;;;;2.95;1.10;;;31.50;33.50;;;;;;5135139;27;20096;-68
2022/08/11 16:56:49;;;;;;;3.55;1.20;;;31.50;33.80;;;;;;5117844;27;20082;-69
2022/08/11 16:59:21;;;;;;;1.90;1.05;;;31.50;34.10;;;;;;5134824;27;20059;-68
2022/08/11 17:01:57;;;;;;;3.20;1.10;;;31.40;34.20;;;;;;5135054;27;20039;-67
2022/08/11 17:13:50;;;;;;;3.25;1.10;;;31.30;34.50;;;;;;5134956;27;20078;-68
2022/08/11 17:16:26;;;;;;;3.38;1.00;;;31.20;34.90;;;;;;5134723;27;20046;-68
2022/08/11 17:19:16;;;;;;;3.00;1.27;;;31.20;34.80;;;;;;5134638;27;20542;-68
2022/08/11 17:24:33;;;;;;;2.45;1.05;;;31.10;35.10;;;;;;5134245;27;20046;-68
2022/08/11 17:27:00;;;;;;;3.20;1.23;;;31.10;35.00;;;;;;5100346;27;20050;-67
2022/08/11 17:29:29;;;;;;;4.25;1.67;;;31.00;34.90;;;;;;5134528;27;20085;-67
2022/08/11 17:37:29;;;;;;;2.33;1.30;;;30.80;35.70;;;;;;5134314;27;20099;-69
2022/08/11 17:39:58;;;;;;;1.58;0.90;;;30.80;35.70;;;;;;5134247;27;20057;-69
2022/08/11 17:50:47;;;;;;;5.63;1.70;;;30.80;35.90;;;;;;5134165;27;20469;-68
2022/08/11 18:01:34;;;;;;;3.20;1.15;;;30.60;36.10;;;;;;5135012;27;20039;-69
2022/08/11 18:04:04;;;;;;;2.40;1.10;;;30.60;36.60;;;;;;5135147;27;20039;-62
2022/08/11 18:06:31;;;;;;;3.85;1.50;;;30.60;36.60;;;;;;5135033;27;20114;-63
